Time;durP1;ratioP1;P1;durP2;ratioP2;P2;SDS_P1;SDS_P2;PMS_P1;PMS_P2;Temp;Humidity;BMP_temperature;BMP_pressure;BME280_temperature;BME280_humidity;BME280_pressure;Samples;Min_cycle;Max_cycle;Signal;HPM_P1;HPM_P2
2023/01/18 00:00:47;;;;;;;7.85;4.18;;;;;;;9.57;100.00;97551.25;5107927;28;20032;-69
2023/01/18 00:03:13;;;;;;;6.20;4.00;;;;;;;9.44;100.00;97545.81;5109486;28;20088;-69
2023/01/18 00:05:40;;;;;;;7.80;4.80;;;;;;;9.44;100.00;97571.75;5109173;28;20077;-69
2023/01/18 00:08:17;;;;;;;5.63;3.97;;;;;;;9.50;100.00;97590.50;5109883;28;20032;-70
2023/01/18 00:10:43;;;;;;;5.20;4.00;;;;;;;9.46;100.00;97589.25;5108169;28;20035;-70
2023/01/18 00:13:09;;;;;;;6.35;4.18;;;;;;;9.49;100.00;97588.88;5108138;28;20472;-70
2023/01/18 00:15:35;;;;;;;7.35;4.10;;;;;;;9.48;100.00;97591.75;5108394;28;20034;-70
2023/01/18 00:18:01;;;;;;;6.97;4.45;;;;;;;9.43;100.00;97584.28;5109527;28;20055;-70
2023/01/18 00:20:28;;;;;;;8.73;4.53;;;;;;;9.46;100.00;97583.91;5109478;28;20059;-69
2023/01/18 00:22:53;;;;;;;7.28;4.72;;;;;;;9.44;100.00;97585.94;5109610;28;20448;-70
2023/01/18 00:25:21;;;;;;;6.68;4.40;;;;;;;9.42;100.00;97584.47;5109528;28;20475;-70
2023/01/18 00:27:49;;;;;;;6.88;4.45;;;;;;;9.45;100.00;97594.78;5108126;28;20515;-71
2023/01/18 00:30:16;;;;;;;6.25;4.32;;;;;;;9.40;100.00;97591.88;5108409;28;20076;-69
2023/01/18 00:32:44;;;;;;;5.68;3.88;;;;;;;9.30;100.00;97592.22;5108938;28;20046;-70
2023/01/18 00:35:10;;;;;;;6.60;4.05;;;;;;;9.37;100.00;97625.19;5107775;28;20063;-69
2023/01/18 00:37:36;;;;;;;5.05;3.60;;;;;;;9.38;100.00;97631.38;5107674;28;20058;-69
2023/01/18 00:40:04;;;;;;;6.70;4.28;;;;;;;9.30;100.00;97626.97;5109036;28;20046;-70
2023/01/18 00:45:14;;;;;;;6.45;4.50;;;;;;;9.29;100.00;97633.34;5107098;28;20118;-69
2023/01/18 00:47:39;;;;;;;5.53;3.90;;;;;;;9.26;100.00;97644.44;5104591;28;20122;-70
2023/01/18 00:50:06;;;;;;;5.60;3.53;;;;;;;9.27;100.00;97646.06;5107652;28;20051;-69
2023/01/18 00:52:33;;;;;;;5.32;3.95;;;;;;;9.25;100.00;97645.44;5108848;28;20120;-68
2023/01/18 00:55:03;;;;;;;5.55;3.78;;;;;;;9.22;100.00;97643.97;5108848;28;20027;-69
2023/01/18 00:57:29;;;;;;;6.57;4.35;;;;;;;9.12;100.00;97643.47;5108741;28;20085;-68
2023/01/18 00:59:54;;;;;;;5.40;3.90;;;;;;;9.27;100.00;97675.50;5107461;28;20082;-68
2023/01/18 01:02:20;;;;;;;6.20;4.18;;;;;;;9.30;100.00;97683.13;5109060;28;20052;-69
2023/01/18 01:07:29;;;;;;;6.22;3.72;;;;;;;9.28;100.00;97669.94;5106981;28;20051;-69
2023/01/18 01:09:56;;;;;;;5.82;3.65;;;;;;;9.41;100.00;97681.81;5108761;27;20036;-69
2023/01/18 01:26:07;;;;;;;4.53;3.40;;;;;;;9.24;100.00;97654.47;5112396;28;20437;-69
2023/01/18 01:28:38;;;;;;;4.78;3.10;;;;;;;9.31;100.00;97670.59;5112546;27;20036;-68
2023/01/18 01:31:05;;;;;;;3.90;3.03;;;;;;;9.25;100.00;97672.16;5112032;28;20066;-69
2023/01/18 01:33:32;;;;;;;5.30;3.55;;;;;;;9.29;100.00;97662.75;5111984;28;20035;-69
2023/01/18 01:36:00;;;;;;;4.43;2.78;;;;;;;9.27;100.00;97648.75;5112103;28;20035;-69
2023/01/18 01:38:26;;;;;;;5.10;3.50;;;;;;;9.24;100.00;97649.97;5111509;28;20891;-70
2023/01/18 01:41:01;;;;;;;5.05;3.30;;;;;;;9.24;100.00;97649.13;5111141;28;20031;-69
2023/01/18 01:43:36;;;;;;;4.45;3.15;;;;;;;9.19;100.00;97648.88;5111613;28;20060;-68
2023/01/18 01:46:03;;;;;;;4.55;3.28;;;;;;;9.17;100.00;97650.91;5111587;28;20039;-69
2023/01/18 01:48:29;;;;;;;4.70;3.28;;;;;;;9.15;100.00;97651.09;5111080;28;20118;-69
2023/01/18 01:50:55;;;;;;;8.93;3.88;;;;;;;9.15;100.00;97651.09;5111277;28;20047;-69
2023/01/18 01:53:21;;;;;;;15.57;6.28;;;;;;;9.10;100.00;97647.34;5111496;28;20031;-69
2023/01/18 01:55:47;;;;;;;14.25;6.10;;;;;;;9.13;100.00;97657.66;5111523;28;20031;-70
2023/01/18 01:58:25;;;;;;;7.65;4.15;;;;;;;9.09;100.00;97664.38;5111500;28;20031;-69
2023/01/18 02:00:53;;;;;;;6.88;4.00;;;;;;;9.03;100.00;97660.63;5111359;28;20031;-70
2023/01/18 02:03:20;;;;;;;4.97;3.65;;;;;;;9.09;100.00;97675.09;5110114;27;20035;-68
2023/01/18 02:05:51;;;;;;;7.20;3.67;;;;;;;9.11;100.00;97686.44;5111079;28;20028;-68
2023/01/18 02:08:21;;;;;;;5.63;3.30;;;;;;;9.10;100.00;97698.97;5111572;28;20031;-69
2023/01/18 02:10:47;;;;;;;7.05;4.68;;;;;;;9.06;100.00;97697.69;5109894;28;20027;-69
2023/01/18 02:13:14;;;;;;;5.22;3.78;;;;;;;9.04;100.00;97701.56;5111311;27;20039;-69
2023/01/18 02:15:47;;;;;;;6.18;3.42;;;;;;;8.88;100.00;97677.75;5110767;28;20089;-70
2023/01/18 02:18:30;;;;;;;9.65;5.32;;;;;;;8.95;100.00;97690.16;5111228;28;20036;-70
2023/01/18 02:21:17;;;;;;;7.82;4.68;;;;;;;8.99;100.00;97693.28;5110834;28;20031;-68
2023/01/18 02:24:30;;;;;;;9.52;5.28;;;;;;;8.93;100.00;97686.00;5110817;28;20123;-69
2023/01/18 02:26:58;;;;;;;11.40;5.97;;;;;;;8.97;100.00;97689.97;5109918;28;20027;-69
2023/01/18 02:30:02;;;;;;;11.07;5.18;;;;;;;8.93;100.00;97694.03;5109561;28;20046;-68
2023/01/18 02:32:49;;;;;;;13.90;5.30;;;;;;;8.91;100.00;97691.53;5108585;28;20027;-69
2023/01/18 02:35:26;;;;;;;15.70;4.70;;;;;;;8.90;100.00;97697.91;5110784;28;20031;-69
2023/01/18 02:38:43;;;;;;;10.18;5.32;;;;;;;8.90;100.00;97694.44;5110509;28;20039;-69
2023/01/18 02:47:24;;;;;;;6.75;4.45;;;;;;;8.77;100.00;97695.09;5110183;28;20101;-69
2023/01/18 02:49:49;;;;;;;5.78;4.13;;;;;;;8.72;100.00;97692.16;5110158;28;20403;-69
2023/01/18 02:52:38;;;;;;;6.80;3.97;;;;;;;8.71;100.00;97687.00;5110411;28;20036;-69
2023/01/18 02:55:09;;;;;;;5.35;3.80;;;;;;;8.63;100.00;97671.91;5110478;28;20110;-70
2023/01/18 02:57:34;;;;;;;5.07;3.47;;;;;;;8.66;100.00;97676.03;5110663;28;20024;-70
2023/01/18 03:00:02;;;;;;;5.43;4.18;;;;;;;8.63;100.00;97674.56;5110280;28;20035;-70
2023/01/18 03:02:28;;;;;;;5.68;3.50;;;;;;;8.59;100.00;97677.81;5110511;28;20128;-69
2023/01/18 03:04:54;;;;;;;5.88;4.05;;;;;;;8.44;100.00;97664.47;5110493;27;20063;-70
2023/01/18 03:07:25;;;;;;;5.65;3.65;;;;;;;8.46;100.00;97672.28;5110183;28;20117;-70
2023/01/18 03:09:52;;;;;;;6.60;3.38;;;;;;;8.39;100.00;97663.38;5110197;28;20032;-70
2023/01/18 03:12:54;;;;;;;8.52;4.70;;;;;;;8.37;100.00;97660.06;5110521;28;20034;-70
2023/01/18 03:15:38;;;;;;;6.30;4.03;;;;;;;8.30;100.00;97643.13;5109774;28;20423;-70
2023/01/18 03:18:21;;;;;;;5.68;4.07;;;;;;;8.17;100.00;97646.41;5109932;28;20114;-70
2023/01/18 03:20:53;;;;;;;7.05;4.72;;;;;;;8.21;100.00;97663.72;5109958;28;20065;-70
2023/01/18 03:23:36;;;;;;;11.93;6.50;;;;;;;8.14;100.00;97660.13;5108695;28;20497;-69
2023/01/18 03:26:04;;;;;;;11.67;7.80;;;;;;;8.16;100.00;97673.28;5109793;28;20069;-70
2023/01/18 03:34:29;;;;;;;10.15;5.93;;;;;;;8.21;100.00;97649.53;5108831;28;20053;-69
2023/01/18 03:36:58;;;;;;;8.02;5.53;;;;;;;8.18;100.00;97639.22;5109056;28;20400;-69
2023/01/18 03:39:39;;;;;;;6.50;3.83;;;;;;;8.16;100.00;97634.06;5108380;28;20122;-70
2023/01/18 03:42:13;;;;;;;7.80;4.65;;;;;;;8.26;100.00;97657.84;5106738;28;20039;-69
2023/01/18 03:45:01;;;;;;;8.23;4.73;;;;;;;8.27;100.00;97659.50;5107261;28;20035;-69
2023/01/18 03:47:27;;;;;;;6.75;4.22;;;;;;;8.20;100.00;97642.53;5100289;28;20027;-70
2023/01/18 03:49:53;;;;;;;4.63;3.53;;;;;;;8.27;100.00;97652.34;5108384;28;20089;-70
2023/01/18 03:52:23;;;;;;;8.43;4.13;;;;;;;8.32;100.00;97654.44;5109005;28;20457;-70
2023/01/18 03:55:08;;;;;;;5.30;3.63;;;;;;;8.31;100.00;97656.28;5107486;28;20024;-69
2023/01/18 03:57:39;;;;;;;4.72;3.70;;;;;;;8.34;100.00;97644.41;5106739;28;20093;-69
2023/01/18 04:00:07;;;;;;;7.22;3.85;;;;;;;8.32;100.00;97630.44;5106631;28;20031;-69
2023/01/18 04:02:32;;;;;;;6.97;4.10;;;;;;;8.31;100.00;97612.72;5107343;28;20051;-69
2023/01/18 04:05:02;;;;;;;6.60;4.65;;;;;;;8.38;100.00;97624.31;5109178;28;20090;-70
2023/01/18 04:07:31;;;;;;;5.82;4.03;;;;;;;8.41;100.00;97610.59;5106976;28;20038;-69
2023/01/18 04:09:58;;;;;;;5.72;4.13;;;;;;;8.38;100.00;97616.31;5108500;28;20031;-69
2023/01/18 04:12:23;;;;;;;7.07;4.50;;;;;;;8.48;100.00;97622.22;5106681;28;20159;-70
2023/01/18 04:14:48;;;;;;;5.88;3.83;;;;;;;8.39;100.00;97604.63;5108034;28;20471;-70
2023/01/18 04:17:14;;;;;;;6.22;4.43;;;;;;;8.43;100.00;97605.91;5107942;28;20480;-69
2023/01/18 04:19:39;;;;;;;8.85;4.47;;;;;;;8.47;100.00;97613.34;5106114;28;20035;-69
2023/01/18 04:22:06;;;;;;;5.45;4.13;;;;;;;8.41;100.00;97602.56;5108295;28;20057;-69
2023/01/18 04:24:31;;;;;;;6.57;4.25;;;;;;;8.43;100.00;97596.06;5106519;28;20023;-70
2023/01/18 04:26:57;;;;;;;7.03;4.45;;;;;;;8.49;100.00;97594.47;5108458;28;20028;-69
2023/01/18 04:29:22;;;;;;;8.45;4.32;;;;;;;8.51;100.00;97589.75;5107926;28;20043;-69
2023/01/18 04:31:48;;;;;;;5.47;4.10;;;;;;;8.52;100.00;97597.59;5108014;28;20064;-70
2023/01/18 04:34:13;;;;;;;6.25;4.38;;;;;;;8.50;100.00;97586.28;5108051;28;20089;-70
2023/01/18 04:36:39;;;;;;;7.15;4.97;;;;;;;8.44;100.00;97551.47;5106521;28;20079;-70
2023/01/18 04:39:04;;;;;;;6.15;4.22;;;;;;;8.46;100.00;97531.59;5107772;28;20035;-70
2023/01/18 04:41:30;;;;;;;11.32;5.55;;;;;;;8.43;100.00;97531.97;5107956;28;20031;-70
2023/01/18 04:43:55;;;;;;;6.72;4.93;;;;;;;8.50;100.00;97548.88;5111085;28;20019;-70
2023/01/18 04:46:20;;;;;;;6.18;5.03;;;;;;;8.48;100.00;97528.75;5113327;28;20031;-69
2023/01/18 04:48:50;;;;;;;7.43;4.82;;;;;;;8.54;100.00;97528.78;5112893;28;20024;-68
2023/01/18 04:51:16;;;;;;;6.40;4.90;;;;;;;8.50;100.00;97513.34;5111307;28;20119;-69
2023/01/18 04:53:43;;;;;;;11.20;5.90;;;;;;;8.42;100.00;97503.59;5111479;28;20028;-69
2023/01/18 04:56:09;;;;;;;8.90;6.15;;;;;;;8.51;100.00;97523.00;5112617;28;20756;-68
2023/01/18 04:58:35;;;;;;;9.13;5.60;;;;;;;8.50;100.00;97532.03;5110967;28;20034;-69
2023/01/18 05:01:05;;;;;;;8.00;5.28;;;;;;;8.50;100.00;97540.03;5112536;28;20036;-69
2023/01/18 05:03:36;;;;;;;10.27;4.72;;;;;;;8.49;100.00;97535.72;5112131;28;20019;-68
2023/01/18 05:06:12;;;;;;;7.95;5.10;;;;;;;8.54;100.00;97528.78;5110746;28;20572;-69
2023/01/18 05:08:39;;;;;;;6.85;4.53;;;;;;;8.57;100.00;97532.91;5110507;28;20040;-69
2023/01/18 05:11:10;;;;;;;6.97;4.68;;;;;;;8.58;100.00;97524.72;5111859;28;20027;-68
2023/01/18 05:13:36;;;;;;;6.70;4.35;;;;;;;8.58;100.00;97515.91;5110175;28;20015;-70
2023/01/18 05:16:02;;;;;;;6.95;5.03;;;;;;;8.61;100.00;97499.50;5111375;28;20506;-70
2023/01/18 05:18:28;;;;;;;7.70;5.32;;;;;;;8.66;100.00;97499.72;5110034;27;20020;-70
2023/01/18 05:20:54;;;;;;;6.60;4.50;;;;;;;8.69;100.00;97507.38;5111386;28;20027;-68
2023/01/18 05:23:19;;;;;;;5.35;4.15;;;;;;;8.62;100.00;97485.09;5110274;28;20353;-69
2023/01/18 05:25:45;;;;;;;5.55;4.15;;;;;;;8.61;100.00;97476.25;5111345;28;20020;-69
2023/01/18 05:28:10;;;;;;;6.32;4.47;;;;;;;8.68;100.00;97489.69;5111508;28;20073;-69
2023/01/18 05:30:41;;;;;;;5.18;3.67;;;;;;;8.67;100.00;97478.16;5111686;28;20034;-69
2023/01/18 05:33:08;;;;;;;7.97;5.95;;;;;;;8.65;100.00;97464.16;5111392;28;20585;-69
2023/01/18 05:35:34;;;;;;;8.30;6.53;;;;;;;8.69;100.00;97456.59;5110095;28;20613;-70
2023/01/18 05:37:59;;;;;;;7.47;5.38;;;;;;;8.69;100.00;97445.91;5111483;28;20475;-70
2023/01/18 05:40:25;;;;;;;7.85;5.25;;;;;;;8.68;100.00;97446.94;5111311;28;20031;-69
2023/01/18 05:42:50;;;;;;;7.88;5.45;;;;;;;8.66;100.00;97448.97;5111253;28;20050;-70
2023/01/18 05:45:16;;;;;;;7.50;4.82;;;;;;;8.67;100.00;97448.78;5111454;28;20080;-69
2023/01/18 05:47:41;;;;;;;8.57;4.80;;;;;;;8.69;100.00;97448.59;5110888;28;20039;-70
2023/01/18 05:50:07;;;;;;;6.68;4.28;;;;;;;8.66;100.00;97467.66;5109716;28;20081;-70
2023/01/18 05:52:33;;;;;;;5.90;3.97;;;;;;;8.63;100.00;97516.97;5111221;28;20532;-70
2023/01/18 05:54:59;;;;;;;6.00;4.32;;;;;;;8.54;100.00;97592.88;5110078;27;20370;-69
2023/01/18 05:57:24;;;;;;;7.00;3.47;;;;;;;8.70;100.00;97624.72;5111347;28;20019;-69
2023/01/18 05:59:50;;;;;;;8.05;3.97;;;;;;;8.77;100.00;97711.13;5110780;28;20036;-70
2023/01/18 06:02:17;;;;;;;9.50;6.45;;;;;;;9.00;100.00;97727.03;5111275;28;20024;-70
2023/01/18 06:04:43;;;;;;;10.23;7.75;;;;;;;9.05;100.00;97748.66;5111326;27;20050;-69
2023/01/18 06:07:09;;;;;;;9.27;5.45;;;;;;;8.61;100.00;97783.44;5110496;28;20054;-69
2023/01/18 06:09:34;;;;;;;6.00;3.70;;;;;;;8.27;100.00;97793.84;5111298;28;20035;-69
2023/01/18 06:12:00;;;;;;;4.38;3.28;;;;;;;7.87;100.00;97782.66;5109137;28;20046;-69
2023/01/18 06:14:25;;;;;;;4.90;3.40;;;;;;;7.59;100.00;97789.53;5111010;28;20031;-70
2023/01/18 06:16:51;;;;;;;7.68;2.80;;;;;;;7.28;100.00;97778.91;5109197;28;20032;-69
2023/01/18 06:19:16;;;;;;;5.25;3.03;;;;;;;7.11;100.00;97819.16;5110830;28;20476;-69
2023/01/18 06:21:42;;;;;;;5.75;2.90;;;;;;;6.86;100.00;97784.63;5110745;28;20042;-70
2023/01/18 06:24:08;;;;;;;3.38;2.17;;;;;;;6.84;100.00;97801.81;5110834;28;20023;-69
2023/01/18 06:26:33;;;;;;;4.05;2.60;;;;;;;6.74;100.00;97851.78;5108944;28;20122;-68
2023/01/18 06:28:59;;;;;;;2.83;2.17;;;;;;;6.67;100.00;97819.66;5107533;28;20023;-69
2023/01/18 06:31:24;;;;;;;3.03;2.08;;;;;;;6.53;100.00;97787.59;5108440;28;20064;-69
2023/01/18 06:33:50;;;;;;;2.85;2.03;;;;;;;6.58;100.00;97791.38;5109384;28;20023;-68
2023/01/18 06:36:15;;;;;;;2.55;1.95;;;;;;;6.61;100.00;97768.94;5108100;28;20035;-68
2023/01/18 06:38:40;;;;;;;3.70;1.48;;;;;;;6.49;100.00;97744.50;5110032;28;20036;-69
2023/01/18 06:41:08;;;;;;;1.58;1.25;;;;;;;6.53;100.00;97750.31;5109393;27;20023;-70
2023/01/18 06:43:33;;;;;;;1.55;1.45;;;;;;;6.49;100.00;97731.19;5109010;28;20043;-69
2023/01/18 06:45:59;;;;;;;1.95;1.40;;;;;;;6.66;100.00;97766.56;5109061;28;20012;-70
2023/01/18 06:48:26;;;;;;;2.75;2.05;;;;;;;6.65;100.00;97772.91;5110652;28;20036;-69
2023/01/18 06:50:55;;;;;;;4.25;2.05;;;;;;;6.72;100.00;97782.72;5109809;28;20066;-69
2023/01/18 06:53:21;;;;;;;1.92;1.30;;;;;;;6.78;100.00;97774.00;5110191;28;20073;-67
2023/01/18 06:55:57;;;;;;;4.15;1.50;;;;;;;6.79;100.00;97802.31;5110385;28;20059;-67
2023/01/18 06:58:24;;;;;;;2.50;1.60;;;;;;;6.81;100.00;97820.78;5110484;28;20044;-67
2023/01/18 07:00:53;;;;;;;2.35;1.50;;;;;;;6.78;100.00;97808.63;5110318;28;20024;-68
2023/01/18 07:03:19;;;;;;;2.47;1.58;;;;;;;6.64;100.00;97800.53;5108947;28;20034;-67
2023/01/18 07:05:45;;;;;;;2.83;2.00;;;;;;;6.72;100.00;97792.53;5108730;28;20400;-67
2023/01/18 07:08:11;;;;;;;2.25;1.65;;;;;;;6.73;100.00;97787.03;5109183;28;20039;-69
2023/01/18 07:10:37;;;;;;;3.08;1.35;;;;;;;6.66;100.00;97812.69;5110013;28;20499;-68
2023/01/18 07:13:02;;;;;;;1.67;1.45;;;;;;;6.62;100.00;97832.66;5110115;28;20032;-68
2023/01/18 07:15:27;;;;;;;3.03;1.52;;;;;;;6.67;100.00;97827.66;5109820;28;20027;-70
2023/01/18 07:17:53;;;;;;;3.10;1.95;;;;;;;6.68;100.00;97847.94;5109461;28;20031;-69
2023/01/18 07:20:18;;;;;;;2.55;1.70;;;;;;;6.58;100.00;97865.13;5109987;28;20031;-70
2023/01/18 07:22:44;;;;;;;4.50;2.50;;;;;;;6.45;100.00;97836.34;5109736;28;20356;-69
2023/01/18 07:25:17;;;;;;;2.53;1.85;;;;;;;6.42;100.00;97844.66;5109478;27;20489;-69
2023/01/18 07:27:42;;;;;;;1.63;1.52;;;;;;;6.49;100.00;97892.75;5109907;28;20050;-70
2023/01/18 07:30:11;;;;;;;3.30;1.90;;;;;;;6.48;100.00;97904.41;5109672;28;20063;-69
2023/01/18 07:32:37;;;;;;;2.15;1.95;;;;;;;6.50;100.00;97919.22;5108146;28;20845;-69
2023/01/18 07:35:04;;;;;;;3.13;2.22;;;;;;;6.52;100.00;97930.50;5109519;28;20035;-69
2023/01/18 07:37:29;;;;;;;2.88;2.58;;;;;;;6.51;100.00;97950.16;5108845;28;20051;-70
2023/01/18 07:39:55;;;;;;;5.63;3.20;;;;;;;6.55;100.00;97972.78;5109369;28;20062;-70
2023/01/18 07:42:20;;;;;;;6.05;2.92;;;;;;;6.54;100.00;97970.28;5109373;28;20114;-69
2023/01/18 07:44:46;;;;;;;4.47;3.10;;;;;;;6.55;100.00;97999.41;5109826;28;20023;-69
2023/01/18 07:47:11;;;;;;;4.57;2.85;;;;;;;6.58;100.00;97995.59;5109630;28;20710;-70
2023/01/18 07:49:36;;;;;;;4.03;2.85;;;;;;;6.61;100.00;98011.25;5108058;28;20067;-69
2023/01/18 07:52:02;;;;;;;6.50;3.72;;;;;;;6.61;100.00;98021.91;5109223;28;20030;-70
2023/01/18 07:54:27;;;;;;;6.22;4.00;;;;;;;6.57;100.00;98024.03;5108061;28;20027;-69
2023/01/18 07:56:53;;;;;;;7.60;4.53;;;;;;;6.54;100.00;98010.22;5109193;28;20020;-70
2023/01/18 07:59:18;;;;;;;8.93;4.80;;;;;;;6.61;100.00;98020.03;5108029;28;20476;-69
2023/01/18 08:01:44;;;;;;;6.70;4.25;;;;;;;6.69;100.00;98025.38;5109175;28;20496;-69
2023/01/18 08:04:09;;;;;;;4.68;3.60;;;;;;;6.64;100.00;98010.88;5109221;28;20444;-70
2023/01/18 08:06:35;;;;;;;4.03;3.05;;;;;;;6.68;100.00;98021.03;5108842;28;20510;-70
2023/01/18 08:09:00;;;;;;;3.55;2.78;;;;;;;6.70;100.00;98034.19;5109173;28;20055;-69
2023/01/18 08:11:26;;;;;;;2.53;2.20;;;;;;;6.84;100.00;98030.88;5107615;28;20088;-70
2023/01/18 08:13:51;;;;;;;4.28;2.38;;;;;;;6.79;100.00;98007.41;5109245;28;20016;-69
2023/01/18 08:16:17;;;;;;;3.90;2.60;;;;;;;6.99;100.00;98005.22;5108717;28;20024;-70
2023/01/18 08:18:44;;;;;;;3.28;2.30;;;;;;;6.95;100.00;98022.53;5109483;28;20111;-70
2023/01/18 08:21:11;;;;;;;2.83;2.42;;;;;;;6.93;100.00;98037.84;5113237;28;20027;-70
2023/01/18 08:23:38;;;;;;;3.90;2.90;;;;;;;6.87;100.00;98049.19;5113147;28;20041;-70
2023/01/18 08:26:04;;;;;;;3.63;2.90;;;;;;;6.82;100.00;98057.69;5112755;28;20514;-69
2023/01/18 08:28:30;;;;;;;3.95;3.03;;;;;;;6.83;100.00;98067.34;5113317;28;20035;-69
2023/01/18 08:31:08;;;;;;;4.88;3.15;;;;;;;6.86;100.00;98087.47;5112792;28;20035;-69
2023/01/18 08:33:41;;;;;;;4.25;3.10;;;;;;;6.89;100.00;98095.97;5112727;28;20031;-70
2023/01/18 08:36:11;;;;;;;4.55;3.08;;;;;;;6.93;100.00;98091.97;5112846;28;20110;-69
2023/01/18 08:38:37;;;;;;;4.60;2.90;;;;;;;6.91;100.00;98093.97;5112757;28;20035;-69
2023/01/18 08:41:03;;;;;;;6.25;3.42;;;;;;;6.95;100.00;98086.47;5112675;28;20042;-69
2023/01/18 08:43:28;;;;;;;4.45;2.60;;;;;;;7.15;100.00;98093.13;5110925;28;20387;-68
2023/01/18 08:45:54;;;;;;;4.70;2.95;;;;;;;7.29;100.00;98096.97;5112648;28;20460;-67
2023/01/18 08:48:19;;;;;;;4.43;3.00;;;;;;;7.22;100.00;98103.97;5111802;28;20476;-68
2023/01/18 08:50:45;;;;;;;3.53;2.70;;;;;;;7.34;100.00;98119.44;5112617;28;20055;-67
2023/01/18 08:53:12;;;;;;;4.65;2.80;;;;;;;7.35;100.00;98112.28;5112421;28;20131;-67
2023/01/18 08:55:39;;;;;;;3.38;2.42;;;;;;;7.39;100.00;98129.63;5111327;28;20412;-67
2023/01/18 08:58:05;;;;;;;3.97;2.38;;;;;;;7.34;100.00;98130.13;5112302;28;20031;-67
2023/01/18 09:00:31;;;;;;;4.75;2.33;;;;;;;7.39;100.00;98129.63;5112295;28;20032;-68
2023/01/18 09:02:57;;;;;;;3.20;2.40;;;;;;;7.41;100.00;98135.63;5111106;28;20498;-67
2023/01/18 09:05:23;;;;;;;3.47;2.03;;;;;;;7.47;100.00;98153.59;5112555;27;20035;-67
2023/01/18 09:07:49;;;;;;;4.68;1.92;;;;;;;7.50;100.00;98156.75;5111194;28;20031;-67
2023/01/18 09:10:15;;;;;;;2.90;1.92;;;;;;;7.57;100.00;98167.56;5112553;28;20391;-67
2023/01/18 09:12:41;;;;;;;2.92;2.20;;;;;;;7.66;100.00;98161.25;5111786;28;20042;-67
2023/01/18 09:15:07;;;;;;;2.50;1.63;;;;;;;7.74;100.00;98170.06;5110414;28;20028;-68
2023/01/18 09:17:32;;;;;;;2.10;1.80;;;;;;;7.78;100.00;98183.91;5111033;28;20023;-67
2023/01/18 09:19:58;;;;;;;1.63;1.52;;;;;;;7.79;100.00;98191.75;5110813;28;20396;-68
2023/01/18 09:22:24;;;;;;;2.90;1.38;;;;;;;7.78;100.00;98197.25;5112127;28;20110;-68
2023/01/18 09:24:50;;;;;;;3.22;1.35;;;;;;;7.87;100.00;98209.59;5110931;28;20024;-67
2023/01/18 09:27:15;;;;;;;4.18;1.55;;;;;;;7.83;100.00;98214.41;5111831;28;20525;-67
2023/01/18 09:29:41;;;;;;;3.13;1.38;;;;;;;7.86;100.00;98215.91;5111313;28;20032;-68
2023/01/18 09:32:07;;;;;;;1.58;0.98;;;;;;;7.89;100.00;98205.72;5110448;28;20031;-68
2023/01/18 09:34:33;;;;;;;1.27;1.10;;;;;;;7.78;100.00;98213.25;5111734;28;20038;-68
2023/01/18 09:36:59;;;;;;;1.92;1.48;;;;;;;7.88;100.00;98227.25;5111712;28;20031;-68
2023/01/18 09:39:25;;;;;;;1.30;1.20;;;;;;;7.84;100.00;98252.59;5111714;28;20502;-68
2023/01/18 09:41:53;;;;;;;1.85;1.02;;;;;;;7.81;100.00;98250.28;5111345;28;20034;-67
2023/01/18 09:44:47;;;;;;;1.60;1.20;;;;;;;7.89;100.00;98271.59;5111696;28;20077;-68
2023/01/18 09:47:21;;;;;;;3.05;1.33;;;;;;;7.92;100.00;98273.94;5109757;28;20528;-67
2023/01/18 09:49:58;;;;;;;2.10;1.35;;;;;;;7.97;100.00;98283.09;5110435;28;20396;-67
2023/01/18 09:53:01;;;;;;;1.67;1.42;;;;;;;7.91;100.00;98289.13;5111705;28;20096;-67
2023/01/18 09:55:58;;;;;;;3.28;1.08;;;;;;;8.01;100.00;98296.97;5088063;28;20043;-67
2023/01/18 09:58:42;;;;;;;1.58;1.27;;;;;;;7.93;100.00;98294.31;5111661;28;20401;-68
2023/01/18 10:01:16;;;;;;;1.80;1.30;;;;;;;7.84;100.00;98328.13;5107378;28;20031;-67
2023/01/18 10:03:47;;;;;;;1.25;1.13;;;;;;;7.91;100.00;98322.97;5107268;28;20062;-67
2023/01/18 10:06:20;;;;;;;1.85;1.27;;;;;;;7.97;100.00;98341.81;5107003;28;20027;-67
2023/01/18 10:08:54;;;;;;;1.40;1.30;;;;;;;7.88;100.00;98315.31;5111221;27;20045;-67
2023/01/18 10:11:25;;;;;;;1.95;1.38;;;;;;;7.80;100.00;98309.97;5111032;28;20031;-67
2023/01/18 10:14:28;;;;;;;2.53;1.77;;;;;;;7.85;100.00;98320.97;5109229;28;20035;-67
2023/01/18 10:16:59;;;;;;;2.55;1.67;;;;;;;7.89;100.00;98325.81;5109383;28;20040;-68
2023/01/18 10:19:29;;;;;;;2.78;1.83;;;;;;;8.13;100.00;98341.00;5110597;28;20483;-68
2023/01/18 10:22:05;;;;;;;2.00;1.80;;;;;;;8.42;100.00;98346.69;5109222;28;20486;-68
2023/01/18 10:24:38;;;;;;;2.10;1.50;;;;;;;8.40;100.00;98344.19;5109402;28;20035;-68
2023/01/18 10:27:34;;;;;;;2.03;1.70;;;;;;;8.38;100.00;98359.53;5108181;28;20050;-67
2023/01/18 10:30:15;;;;;;;2.53;1.80;;;;;;;8.30;100.00;98361.38;5110727;28;20396;-67
2023/01/18 10:32:51;;;;;;;2.92;2.00;;;;;;;8.19;100.00;98357.16;5110660;28;20113;-67
2023/01/18 10:35:27;;;;;;;2.90;1.98;;;;;;;8.14;100.00;98364.03;5108338;28;20057;-68
2023/01/18 10:37:57;;;;;;;2.65;2.10;;;;;;;8.18;100.00;98387.56;5107943;28;20080;-67
2023/01/18 10:40:23;;;;;;;2.30;1.92;;;;;;;8.30;100.00;98391.59;5110483;28;20032;-67
2023/01/18 10:42:52;;;;;;;1.95;1.58;;;;;;;8.30;100.00;98391.59;5108662;28;20141;-67
2023/01/18 10:45:27;;;;;;;1.85;1.60;;;;;;;8.30;100.00;98393.41;5110962;28;20414;-67
2023/01/18 10:47:55;;;;;;;3.60;1.88;;;;;;;8.46;100.00;98412.13;5110687;28;20031;-67
2023/01/18 10:50:39;;;;;;;2.10;1.90;;;;;;;8.46;100.00;98420.13;5107640;28;20078;-68
2023/01/18 10:53:22;;;;;;;3.15;1.80;;;;;;;8.42;100.00;98414.28;5108907;28;20030;-67
2023/01/18 10:56:12;;;;;;;11.65;6.05;;;;;;;8.50;100.00;98432.13;5109845;28;20483;-68
2023/01/18 10:58:51;;;;;;;2.10;1.90;;;;;;;8.49;100.00;98441.16;5109760;28;20050;-67
2023/01/18 11:01:22;;;;;;;3.63;1.90;;;;;;;8.59;100.00;98445.34;5109808;27;20073;-67
2023/01/18 11:03:52;;;;;;;2.55;2.05;;;;;;;8.50;100.00;98446.34;5109709;28;20106;-67
2023/01/18 11:06:19;;;;;;;1.63;1.40;;;;;;;8.68;100.00;98457.66;5110324;27;20067;-67
2023/01/18 11:08:46;;;;;;;2.30;1.50;;;;;;;8.60;100.00;98462.19;5109777;28;20019;-67
2023/01/18 11:14:22;;;;;;;1.77;1.40;;;;;;;8.62;100.00;98466.38;5109927;28;20055;-67
2023/01/18 11:17:02;;;;;;;1.83;1.48;;;;;;;8.62;100.00;98471.72;5109762;28;20419;-67
2023/01/18 11:19:28;;;;;;;1.35;1.10;;;;;;;8.60;100.00;98476.38;5108153;28;20042;-67
2023/01/18 11:21:55;;;;;;;2.60;1.42;;;;;;;8.68;100.00;98472.88;5107843;28;20059;-68
2023/01/18 11:24:26;;;;;;;1.70;1.60;;;;;;;8.68;100.00;98476.38;5109664;28;20053;-68
2023/01/18 11:27:21;;;;;;;1.95;1.17;;;;;;;8.81;100.00;98471.34;5109586;28;20089;-68
2023/01/18 11:29:48;;;;;;;1.30;1.20;;;;;;;8.99;100.00;98473.84;5108510;27;20015;-68
2023/01/18 11:32:19;;;;;;;1.98;1.45;;;;;;;8.98;100.00;98470.34;5108089;28;20038;-68
2023/01/18 11:34:50;;;;;;;2.08;1.67;;;;;;;9.01;100.00;98474.53;5110170;27;20035;-68
2023/01/18 11:37:35;;;;;;;1.90;1.38;;;;;;;9.22;96.97;98474.78;5109280;28;20030;-68
2023/01/18 11:40:25;;;;;;;1.40;1.10;;;;;;;9.30;95.38;98477.47;5109107;28;20453;-68
2023/01/18 11:42:58;;;;;;;1.70;1.30;;;;;;;9.26;93.48;98476.16;5107551;28;20076;-68
2023/01/18 11:45:39;;;;;;;1.80;1.38;;;;;;;9.34;93.15;98484.13;5108275;28;20030;-68
2023/01/18 11:48:31;;;;;;;1.63;1.35;;;;;;;9.22;94.39;98485.50;5107213;28;20034;-68
2023/01/18 11:51:14;;;;;;;1.75;1.38;;;;;;;9.26;93.35;98489.53;5107148;28;20047;-68
2023/01/18 11:54:09;;;;;;;1.25;1.10;;;;;;;9.34;93.30;98492.16;5106595;28;20104;-68
2023/01/18 11:56:49;;;;;;;1.42;1.02;;;;;;;9.21;94.72;98489.19;5106458;28;21531;-68
2023/01/18 11:59:26;;;;;;;1.70;1.60;;;;;;;9.16;95.45;98499.56;5107225;28;20064;-67
2023/01/18 12:02:29;;;;;;;2.15;1.63;;;;;;;9.16;95.06;98518.28;5107157;28;20032;-68
2023/01/18 12:05:19;;;;;;;3.17;2.72;;;;;;;9.26;91.67;98529.63;5107390;28;20023;-67
2023/01/18 12:08:16;;;;;;;2.15;1.60;;;;;;;9.14;92.63;98539.00;5106744;28;20062;-67
2023/01/18 12:11:18;;;;;;;1.70;1.60;;;;;;;9.06;94.31;98547.88;5108891;28;20059;-67
2023/01/18 12:13:59;;;;;;;1.58;1.48;;;;;;;9.11;94.37;98555.38;5105245;28;20505;-67
2023/01/18 12:16:43;;;;;;;1.35;1.10;;;;;;;9.23;92.81;98557.53;5107454;28;20414;-68
2023/01/18 12:19:34;;;;;;;1.40;1.30;;;;;;;9.28;91.34;98570.41;5106985;28;20054;-67
2023/01/18 12:22:21;;;;;;;1.60;1.20;;;;;;;9.22;92.50;98576.44;5102973;28;20024;-67
2023/01/18 12:24:49;;;;;;;1.77;1.17;;;;;;;9.32;91.17;98574.41;5108622;28;20020;-67